Time;durP1;ratioP1;P1;durP2;ratioP2;P2;SDS_P1;SDS_P2;PMS_P1;PMS_P2;Temp;Humidity;BMP_temperature;BMP_pressure;BME280_temperature;BME280_humidity;BME280_pressure;Samples;Min_cycle;Max_cycle;Signal;HPM_P1;HPM_P2
2021/06/28 01:04:24;0.00;0.00;0.62;0.00;0.00;0.62;;;;;24.50;1.30;;;;;;2510838;55;3603;31
2021/06/28 01:26:38;236233.00;0.79;408.27;49142.00;0.16;85.70;;;;;23.70;4.80;;;;;;2520671;55;4234;31
2021/06/28 01:51:17;54667.00;0.18;95.26;0.00;0.00;0.62;;;;;24.50;1.00;;;;;;2283495;61;1330;-91
2021/06/28 01:56:17;0.00;0.00;0.62;0.00;0.00;0.62;;;;;24.30;2.90;;;;;;2287520;61;1318;-91
2021/06/28 02:01:13;65737.00;0.22;114.39;0.00;0.00;0.62;;;;;24.30;3.00;;;;;;2287729;61;1375;-91
2021/06/28 02:03:40;130144.00;0.43;225.58;0.00;0.00;0.62;;;;;24.30;1.00;;;;;;2285790;61;1975;-88
2021/06/28 02:18:41;0.00;0.00;0.62;0.00;0.00;0.62;;;;;24.00;3.60;;;;;;2521860;55;3606;31
2021/06/28 02:26:09;0.00;0.00;0.62;0.00;0.00;0.62;;;;;23.30;5.80;;;;;;2517060;55;3569;31
2021/06/28 03:37:47;275214.00;0.92;475.31;142070.00;0.47;246.14;;;;;23.20;7.00;;;;;;2287354;61;901;-91
2021/06/28 04:24:38;184421.00;0.61;319.10;51740.00;0.17;90.20;;;;;23.80;4.60;;;;;;2287677;61;1869;-87
2021/06/28 05:55:53;0.00;0.00;0.62;0.00;0.00;0.62;;;;;31.30;1.00;;;;;;2286644;60;1410;-86
2021/06/28 06:55:12;437488.00;1.46;754.26;119260.00;0.40;206.81;;;;;34.70;1.00;;;;;;2489993;39;3671;31
2021/06/28 07:19:51;159788.00;0.53;276.67;58954.00;0.20;102.67;;;;;35.00;1.00;;;;;;2285845;60;1384;-82
2021/06/28 07:22:19;411266.00;1.37;709.17;72307.00;0.24;125.75;;;;;34.90;1.00;;;;;;2277116;60;960;-83
2021/06/28 07:24:46;188405.00;0.63;325.96;65039.00;0.22;113.19;;;;;35.70;1.00;;;;;;2274204;60;2008;-84
2021/06/28 07:27:13;173396.00;0.58;300.12;57488.00;0.19;100.13;;;;;35.40;1.00;;;;;;2277210;60;1024;-87
2021/06/28 07:32:08;71577.00;0.24;124.49;0.00;0.00;0.62;;;;;36.60;1.00;;;;;;2487057;39;3646;31
2021/06/28 07:37:05;0.00;0.00;0.62;0.00;0.00;0.62;;;;;37.10;1.00;;;;;;2290124;60;1401;-84
2021/06/28 07:39:32;0.00;0.00;0.62;0.00;0.00;0.62;;;;;36.80;1.00;;;;;;2281457;60;1451;-84
2021/06/28 07:42:00;0.00;0.00;0.62;0.00;0.00;0.62;;;;;37.10;1.00;;;;;;2284703;61;1020;-83
2021/06/28 07:46:54;0.00;0.00;0.62;0.00;0.00;0.62;;;;;37.30;1.00;;;;;;2287072;60;1424;-85
2021/06/28 07:49:21;26746.00;0.09;46.95;0.00;0.00;0.62;;;;;36.90;1.00;;;;;;2276500;61;1429;-84
2021/06/28 07:54:18;822.00;0.00;2.04;0.00;0.00;0.62;;;;;36.80;1.00;;;;;;2282591;60;1397;-83
2021/06/28 07:56:46;153100.00;0.51;265.15;0.00;0.00;0.62;;;;;36.90;1.00;;;;;;2270717;60;971;-83
2021/06/28 07:59:13;0.00;0.00;0.62;0.00;0.00;0.62;;;;;36.70;1.00;;;;;;2270738;60;1462;-87
2021/06/28 08:01:40;111121.00;0.37;192.76;46840.00;0.16;81.72;;;;;37.00;1.00;;;;;;2277321;60;1103;-82
2021/06/28 08:04:07;0.00;0.00;0.62;0.00;0.00;0.62;;;;;37.30;1.00;;;;;;2270775;60;1994;-85
2021/06/28 08:11:32;250884.00;0.84;433.47;50002.00;0.17;87.19;;;;;37.10;1.00;;;;;;2278971;61;1212;-85
2021/06/28 08:14:00;0.00;0.00;0.62;0.00;0.00;0.62;;;;;36.90;1.00;;;;;;2276905;61;957;-88
2021/06/28 08:16:27;0.00;0.00;0.62;0.00;0.00;0.62;;;;;36.60;1.00;;;;;;2273382;61;995;-86
2021/06/28 08:18:54;12700.00;0.04;22.63;0.00;0.00;0.62;;;;;37.20;1.00;;;;;;2277169;60;1383;-82
2021/06/28 08:23:49;0.00;0.00;0.62;0.00;0.00;0.62;;;;;37.30;1.00;;;;;;2282729;61;1895;-81
2021/06/28 08:26:16;0.00;0.00;0.62;0.00;0.00;0.62;;;;;36.70;1.00;;;;;;2273953;60;966;-81
2021/06/28 08:28:46;0.00;0.00;0.62;0.00;0.00;0.62;;;;;36.40;1.00;;;;;;2280397;60;1380;-82
2021/06/28 08:31:13;0.00;0.00;0.62;0.00;0.00;0.62;;;;;36.60;1.00;;;;;;2276529;61;973;-85
2021/06/28 08:33:40;0.00;0.00;0.62;0.00;0.00;0.62;;;;;37.10;1.00;;;;;;2276622;60;946;-82
2021/06/28 08:38:35;0.00;0.00;0.62;0.00;0.00;0.62;;;;;35.60;1.00;;;;;;2286759;61;1404;-83
2021/06/28 08:41:02;0.00;0.00;0.62;0.00;0.00;0.62;;;;;34.90;1.00;;;;;;2273541;61;1067;-83
2021/06/28 08:43:30;0.00;0.00;0.62;0.00;0.00;0.62;;;;;35.20;1.00;;;;;;2273975;61;948;-85
2021/06/28 08:45:58;74502.00;0.25;129.54;0.00;0.00;0.62;;;;;34.70;1.00;;;;;;2273878;61;1939;-82
2021/06/28 08:48:25;0.00;0.00;0.62;0.00;0.00;0.62;;;;;35.00;1.00;;;;;;2276816;61;1001;-80
2021/06/28 08:50:55;47447.00;0.16;82.77;0.00;0.00;0.62;;;;;35.00;1.00;;;;;;2276759;61;1463;-83
2021/06/28 08:53:23;0.00;0.00;0.62;0.00;0.00;0.62;;;;;34.60;1.00;;;;;;2265875;61;997;-83
2021/06/28 08:55:51;0.00;0.00;0.62;0.00;0.00;0.62;;;;;35.20;1.00;;;;;;2268964;61;949;-84
2021/06/28 08:58:19;0.00;0.00;0.62;0.00;0.00;0.62;;;;;34.50;1.00;;;;;;2268745;61;984;-86
2021/06/28 09:00:47;32758.00;0.11;57.36;0.00;0.00;0.62;;;;;34.50;1.00;;;;;;2276846;61;1341;-83
2021/06/28 09:03:16;0.00;0.00;0.62;0.00;0.00;0.62;;;;;34.70;1.00;;;;;;2269642;61;965;-83
2021/06/28 09:05:59;0.00;0.00;0.62;0.00;0.00;0.62;;;;;35.00;1.00;;;;;;2268902;61;1927;-85
2021/06/28 09:08:26;0.00;0.00;0.62;0.00;0.00;0.62;;;;;35.10;1.00;;;;;;2276577;61;912;-84
2021/06/28 09:10:53;0.00;0.00;0.62;0.00;0.00;0.62;;;;;35.50;1.00;;;;;;2269603;61;1409;-84
2021/06/28 09:13:36;34139.00;0.11;59.75;0.00;0.00;0.62;;;;;35.30;1.00;;;;;;2269764;61;1020;-82
2021/06/28 09:16:14;0.00;0.00;0.62;0.00;0.00;0.62;;;;;35.10;1.00;;;;;;2276830;61;923;-83
2021/06/28 09:18:52;130225.00;0.43;225.72;65537.00;0.22;114.05;;;;;35.20;1.00;;;;;;2276578;61;1261;-82
2021/06/28 09:21:28;0.00;0.00;0.62;0.00;0.00;0.62;;;;;35.20;1.00;;;;;;2269291;61;986;-82
2021/06/28 09:23:56;0.00;0.00;0.62;0.00;0.00;0.62;;;;;35.10;1.00;;;;;;2266404;61;2002;-83
2021/06/28 09:26:28;0.00;0.00;0.62;0.00;0.00;0.62;;;;;34.90;1.00;;;;;;2269517;61;1004;-82
2021/06/28 09:28:58;0.00;0.00;0.62;0.00;0.00;0.62;;;;;34.80;1.00;;;;;;2280479;61;1492;-83
2021/06/28 09:31:34;0.00;0.00;0.62;0.00;0.00;0.62;;;;;35.00;1.00;;;;;;2269917;61;1001;-84
2021/06/28 09:34:12;0.00;0.00;0.62;0.00;0.00;0.62;;;;;34.90;1.00;;;;;;2270461;61;1006;-81
2021/06/28 09:36:49;32498.00;0.11;56.91;0.00;0.00;0.62;;;;;34.00;1.00;;;;;;2280599;61;934;-84
2021/06/28 09:39:24;0.00;0.00;0.62;0.00;0.00;0.62;;;;;33.70;1.00;;;;;;2270001;61;1452;-83
2021/06/28 09:41:57;0.00;0.00;0.62;0.00;0.00;0.62;;;;;33.30;1.00;;;;;;2268734;61;972;-85
2021/06/28 09:44:28;71986.00;0.24;125.19;0.00;0.00;0.62;;;;;33.20;1.00;;;;;;2276289;61;2050;-85
2021/06/28 09:47:13;0.00;0.00;0.62;0.00;0.00;0.62;;;;;33.10;1.00;;;;;;2267919;61;932;-83
2021/06/28 09:49:58;0.00;0.00;0.62;0.00;0.00;0.62;;;;;32.90;1.00;;;;;;2260862;61;1421;-81
2021/06/28 09:52:30;0.00;0.00;0.62;0.00;0.00;0.62;;;;;33.70;1.00;;;;;;2264540;61;959;-85
2021/06/28 09:55:11;57296.00;0.19;99.80;0.00;0.00;0.62;;;;;33.40;1.00;;;;;;2268575;61;957;-82
2021/06/28 09:57:37;0.00;0.00;0.62;0.00;0.00;0.62;;;;;33.10;1.00;;;;;;2294890;55;4093;31
2021/06/28 10:02:40;11788.00;0.04;21.05;0.00;0.00;0.62;;;;;32.80;1.00;;;;;;2282399;61;1401;-85
2021/06/28 10:07:38;260004.00;0.87;449.16;97218.00;0.32;168.77;;;;;33.00;1.00;;;;;;2286331;60;1381;-84
2021/06/28 10:10:25;0.00;0.00;0.62;0.00;0.00;0.62;;;;;33.00;1.00;;;;;;2283636;60;1325;-84
2021/06/28 10:13:05;0.00;0.00;0.62;0.00;0.00;0.62;;;;;33.00;1.00;;;;;;2280058;60;963;-85
2021/06/28 10:15:33;32208.00;0.11;56.40;0.00;0.00;0.62;;;;;32.90;1.00;;;;;;2280022;60;1013;-84
2021/06/28 10:18:02;0.00;0.00;0.62;0.00;0.00;0.62;;;;;32.40;1.00;;;;;;2273345;61;985;-85
2021/06/28 10:20:32;0.00;0.00;0.62;0.00;0.00;0.62;;;;;32.20;1.00;;;;;;2280344;60;1454;-85
2021/06/28 10:23:02;53009.00;0.18;92.39;0.00;0.00;0.62;;;;;31.90;1.00;;;;;;2273539;60;988;-85
2021/06/28 10:28:04;0.00;0.00;0.62;0.00;0.00;0.62;;;;;31.50;1.00;;;;;;2287006;60;1456;-85
2021/06/28 10:40:25;0.00;0.00;0.62;0.00;0.00;0.62;;;;;31.60;1.00;;;;;;2286980;60;1377;-82
2021/06/28 10:42:55;0.00;0.00;0.62;0.00;0.00;0.62;;;;;31.70;1.00;;;;;;2285312;60;915;-85
2021/06/28 10:45:38;185224.00;0.62;320.49;42376.00;0.14;74.00;;;;;32.10;1.00;;;;;;2276134;60;1913;-83
2021/06/28 10:53:00;0.00;0.00;0.62;0.00;0.00;0.62;;;;;31.60;1.00;;;;;;2289797;60;1153;-85
2021/06/28 10:55:44;0.00;0.00;0.62;0.00;0.00;0.62;;;;;31.60;1.00;;;;;;2289099;60;1038;-83
2021/06/28 11:08:22;174559.00;0.58;302.12;65691.00;0.22;114.31;;;;;31.60;1.00;;;;;;2287298;61;966;-84
2021/06/28 11:10:55;473081.00;1.58;815.49;70434.00;0.23;122.51;;;;;31.70;1.00;;;;;;2280131;61;1368;-84
2021/06/28 11:15:50;0.00;0.00;0.62;0.00;0.00;0.62;;;;;31.30;1.00;;;;;;2286818;61;1305;-85
2021/06/28 11:18:29;0.00;0.00;0.62;0.00;0.00;0.62;;;;;31.40;1.00;;;;;;2273429;61;1044;-83
2021/06/28 11:20:56;43436.00;0.14;75.83;0.00;0.00;0.62;;;;;31.40;1.00;;;;;;2284938;60;1409;-80
2021/06/28 11:23:23;48273.00;0.16;84.20;0.00;0.00;0.62;;;;;31.00;1.00;;;;;;2277661;60;954;-82
2021/06/28 11:25:53;0.00;0.00;0.62;0.00;0.00;0.62;;;;;31.30;1.00;;;;;;2277704;60;2006;-83
2021/06/28 11:28:27;0.00;0.00;0.62;0.00;0.00;0.62;;;;;31.60;1.00;;;;;;2273894;60;1009;-83
2021/06/28 11:33:37;14090.00;0.05;25.03;0.00;0.00;0.62;;;;;31.80;1.00;;;;;;2285109;61;1409;-84
2021/06/28 11:36:05;0.00;0.00;0.62;0.00;0.00;0.62;;;;;31.80;1.00;;;;;;2273937;61;991;-81
2021/06/28 11:38:38;0.00;0.00;0.62;0.00;0.00;0.62;;;;;32.30;1.00;;;;;;2277295;61;941;-84
2021/06/28 11:41:17;0.00;0.00;0.62;0.00;0.00;0.62;;;;;32.40;1.00;;;;;;2273475;61;997;-83
2021/06/28 11:48:44;64789.00;0.22;112.75;0.00;0.00;0.62;;;;;32.00;1.00;;;;;;2286333;60;1404;-82
2021/06/28 11:51:22;211498.00;0.70;365.71;57122.00;0.19;99.50;;;;;31.90;1.00;;;;;;2284338;60;945;-83
2021/06/28 11:53:55;287506.00;0.96;496.44;61403.00;0.20;106.90;;;;;31.80;1.00;;;;;;2274013;60;958;-82
2021/06/28 11:56:30;189030.00;0.63;327.04;60261.00;0.20;104.93;;;;;31.60;1.00;;;;;;2276128;61;987;-83
2021/06/28 12:03:53;47838.00;0.16;83.45;0.00;0.00;0.62;;;;;32.00;1.00;;;;;;2277884;61;1218;-82
2021/06/28 12:11:15;252851.00;0.84;436.85;54931.00;0.18;95.71;;;;;32.10;1.00;;;;;;2282112;60;1216;-81
2021/06/28 12:13:45;181210.00;0.60;313.57;72135.00;0.24;125.45;;;;;32.30;1.00;;;;;;2269250;61;949;-81
2021/06/28 12:16:18;286779.00;0.96;495.19;62501.00;0.21;108.80;;;;;32.30;1.00;;;;;;2272862;61;994;-81
2021/06/28 12:21:14;168041.00;0.56;290.89;59633.00;0.20;103.84;;;;;32.00;1.00;;;;;;2294797;60;1405;-83
2021/06/28 12:23:41;165237.00;0.55;286.06;54838.00;0.18;95.55;;;;;32.30;1.00;;;;;;2286257;60;970;-81
2021/06/28 12:26:12;240596.00;0.80;415.78;86628.00;0.29;150.48;;;;;32.00;1.00;;;;;;2283015;60;1919;-82
2021/06/28 12:28:39;32295.00;0.11;56.56;0.00;0.00;0.62;;;;;31.70;1.00;;;;;;2286261;60;1481;-83
2021/06/28 12:31:18;0.00;0.00;0.62;0.00;0.00;0.62;;;;;31.90;1.00;;;;;;2293670;60;959;-83
2021/06/28 12:33:45;163671.00;0.55;283.36;61839.00;0.21;107.66;;;;;31.80;1.00;;;;;;2293664;60;1003;-82
2021/06/28 12:36:12;0.00;0.00;0.62;0.00;0.00;0.62;;;;;31.80;1.00;;;;;;2293642;60;1039;-83
2021/06/28 12:38:39;0.00;0.00;0.62;0.00;0.00;0.62;;;;;31.70;1.00;;;;;;2282850;60;1458;-82
2021/06/28 12:43:34;80110.00;0.27;139.23;0.00;0.00;0.62;;;;;31.80;1.00;;;;;;2287016;60;1404;-84
2021/06/28 12:46:01;22326.00;0.07;39.30;0.00;0.00;0.62;;;;;31.50;1.00;;;;;;2272790;61;1992;-81
2021/06/28 12:48:31;0.00;0.00;0.62;0.00;0.00;0.62;;;;;31.70;1.00;;;;;;2266046;61;1002;-83
2021/06/28 12:50:58;0.00;0.00;0.62;0.00;0.00;0.62;;;;;31.70;1.00;;;;;;2520074;39;2002;31
2021/06/28 12:56:05;0.00;0.00;0.62;0.00;0.00;0.62;;;;;32.10;1.00;;;;;;2282934;61;1144;-83
2021/06/28 12:58:42;0.00;0.00;0.62;0.00;0.00;0.62;;;;;32.20;1.00;;;;;;2270572;61;1006;-84
2021/06/28 13:01:10;0.00;0.00;0.62;0.00;0.00;0.62;;;;;32.10;1.00;;;;;;2269873;61;941;-83
2021/06/28 13:03:38;0.00;0.00;0.62;0.00;0.00;0.62;;;;;32.00;1.00;;;;;;2276324;61;906;-82
2021/06/28 13:06:14;12690.00;0.04;22.61;0.00;0.00;0.62;;;;;32.20;1.00;;;;;;2276904;61;1955;-81
2021/06/28 13:08:41;0.00;0.00;0.62;0.00;0.00;0.62;;;;;32.30;1.00;;;;;;2268326;61;1384;-82
2021/06/28 13:11:12;0.00;0.00;0.62;0.00;0.00;0.62;;;;;32.20;1.00;;;;;;2268459;61;1033;-84
2021/06/28 13:13:53;0.00;0.00;0.62;0.00;0.00;0.62;;;;;32.20;1.00;;;;;;2268523;61;982;-82
2021/06/28 13:16:30;0.00;0.00;0.62;0.00;0.00;0.62;;;;;32.50;1.00;;;;;;2256120;61;953;-83
2021/06/28 13:19:07;40627.00;0.14;70.97;0.00;0.00;0.62;;;;;32.60;1.00;;;;;;2248937;61;1435;-82
2021/06/28 13:21:40;36383.00;0.12;63.63;0.00;0.00;0.62;;;;;32.60;1.00;;;;;;2246575;61;940;-83
2021/06/28 13:24:16;0.00;0.00;0.62;0.00;0.00;0.62;;;;;32.60;1.00;;;;;;2256348;61;1003;-82
2021/06/28 13:29:12;0.00;0.00;0.62;0.00;0.00;0.62;;;;;32.40;1.00;;;;;;2286823;60;1493;-82
2021/06/28 13:31:57;0.00;0.00;0.62;0.00;0.00;0.62;;;;;32.20;1.00;;;;;;2285025;60;937;-81
2021/06/28 13:34:28;0.00;0.00;0.62;0.00;0.00;0.62;;;;;32.40;1.00;;;;;;2277987;60;1005;-81
2021/06/28 13:37:04;0.00;0.00;0.62;0.00;0.00;0.62;;;;;32.50;1.00;;;;;;2285061;60;1001;-81
2021/06/28 13:39:36;0.00;0.00;0.62;0.00;0.00;0.62;;;;;32.50;1.00;;;;;;2277964;60;1368;-81
2021/06/28 13:42:03;25976.00;0.09;45.62;0.00;0.00;0.62;;;;;32.60;1.00;;;;;;2284220;60;917;-82
2021/06/28 13:44:30;65785.00;0.22;114.48;0.00;0.00;0.62;;;;;32.40;1.00;;;;;;2281121;60;995;-80
2021/06/28 13:47:07;64152.00;0.21;111.65;0.00;0.00;0.62;;;;;32.60;1.00;;;;;;2277635;60;1936;-82
2021/06/28 13:49:40;139437.00;0.46;241.60;0.00;0.00;0.62;;;;;32.40;1.00;;;;;;2281283;60;1399;-81
2021/06/28 13:52:08;169170.00;0.56;292.84;0.00;0.00;0.62;;;;;32.30;1.00;;;;;;2277827;60;985;-82
2021/06/28 13:54:36;211153.00;0.70;365.12;0.00;0.00;0.62;;;;;32.30;1.00;;;;;;2277751;60;1020;-82
2021/06/28 13:57:04;159896.00;0.53;276.86;0.00;0.00;0.62;;;;;32.10;1.00;;;;;;2277877;60;1044;-82
2021/06/28 13:59:30;187574.00;0.63;324.53;0.00;0.00;0.62;;;;;32.00;1.00;;;;;;2277719;60;1337;-79
2021/06/28 14:01:57;151757.00;0.51;262.84;0.00;0.00;0.62;;;;;32.10;1.00;;;;;;2277874;60;1479;-82
2021/06/28 14:04:24;75825.00;0.25;131.83;0.00;0.00;0.62;;;;;32.30;1.00;;;;;;2284723;60;1048;-83
2021/06/28 14:09:20;192625.00;0.64;333.23;0.00;0.00;0.62;;;;;32.10;1.00;;;;;;2294387;60;1392;-83
2021/06/28 14:11:47;345660.00;1.15;596.40;0.00;0.00;0.62;;;;;32.30;1.00;;;;;;2280409;60;977;-81
2021/06/28 14:14:14;98486.00;0.33;170.96;0.00;0.00;0.62;;;;;32.60;1.00;;;;;;2270202;60;945;-82
2021/06/28 14:16:41;296665.00;0.99;512.19;0.00;0.00;0.62;;;;;32.20;1.00;;;;;;2275879;60;955;-81
2021/06/28 14:19:08;422554.00;1.41;728.58;35551.00;0.12;62.19;;;;;32.10;1.00;;;;;;2279665;60;1415;-82
2021/06/28 14:21:37;236413.00;0.79;408.58;0.00;0.00;0.62;;;;;32.30;1.00;;;;;;2280228;60;956;-82
2021/06/28 14:24:05;164849.00;0.55;285.39;67186.00;0.22;116.90;;;;;32.40;1.00;;;;;;2279976;60;1004;-80
2021/06/28 14:29:34;201521.00;0.67;348.54;0.00;0.00;0.62;;;;;31.90;1.00;;;;;;2304364;60;1446;-82
2021/06/28 14:32:01;308253.00;1.03;532.11;0.00;0.00;0.62;;;;;32.20;1.00;;;;;;2287513;60;914;-83
2021/06/28 14:34:28;54073.00;0.18;94.23;0.00;0.00;0.62;;;;;32.20;1.00;;;;;;2280750;60;945;-83
2021/06/28 14:39:23;139382.00;0.46;241.51;0.00;0.00;0.62;;;;;31.80;1.00;;;;;;2278669;60;1677;-82
2021/06/28 14:41:49;186454.00;0.62;322.60;70146.00;0.23;122.01;;;;;31.60;1.00;;;;;;2272858;60;1012;-82
2021/06/28 14:44:16;164924.00;0.55;285.52;0.00;0.00;0.62;;;;;31.40;1.00;;;;;;2272942;60;1000;-84
2021/06/28 14:46:45;126704.00;0.42;219.65;0.00;0.00;0.62;;;;;31.40;1.00;;;;;;2273071;60;1029;-82
2021/06/28 14:49:11;77706.00;0.26;135.07;0.00;0.00;0.62;;;;;31.20;1.00;;;;;;2314530;39;2100;31
2021/06/28 14:51:38;307655.00;1.03;531.08;0.00;0.00;0.62;;;;;31.10;1.00;;;;;;2276863;60;1353;-82
2021/06/28 14:54:05;153628.00;0.51;266.06;0.00;0.00;0.62;;;;;31.00;1.00;;;;;;2272468;60;1025;-80
2021/06/28 14:56:32;99835.00;0.33;173.29;0.00;0.00;0.62;;;;;31.20;1.00;;;;;;2275868;60;1002;-83
2021/06/28 14:58:59;46291.00;0.15;80.77;0.00;0.00;0.62;;;;;30.90;1.00;;;;;;2275810;60;1447;-82
2021/06/28 15:01:26;124696.00;0.42;216.18;0.00;0.00;0.62;;;;;31.30;1.00;;;;;;2271864;60;957;-82
2021/06/28 15:03:54;94881.00;0.32;164.74;0.00;0.00;0.62;;;;;31.40;1.00;;;;;;2261904;61;1009;-81
2021/06/28 15:08:49;239419.00;0.80;413.75;0.00;0.00;0.62;;;;;32.00;1.00;;;;;;2277531;61;1890;-85
2021/06/28 15:13:44;1139431.00;3.80;1981.09;191501.00;0.64;331.29;;;;;32.30;1.00;;;;;;2277780;61;1390;-86
2021/06/28 15:16:11;846339.00;2.82;1462.06;96558.00;0.32;167.63;;;;;32.70;1.00;;;;;;2276332;61;1013;-83
2021/06/28 15:18:38;183614.00;0.61;317.71;64345.00;0.21;111.99;;;;;32.40;1.00;;;;;;2276304;61;1017;-82
2021/06/28 15:21:06;224449.00;0.75;388.00;65532.00;0.22;114.04;;;;;31.50;1.00;;;;;;2275363;61;989;-82
2021/06/28 15:26:01;165262.00;0.55;286.10;53548.00;0.18;93.32;;;;;31.00;1.00;;;;;;2521159;39;3590;31
2021/06/28 15:28:28;174594.00;0.58;302.18;64885.00;0.22;112.92;;;;;31.10;1.00;;;;;;2275361;61;1978;-82
2021/06/28 15:30:56;205297.00;0.68;355.04;52763.00;0.18;91.96;;;;;31.50;1.00;;;;;;2275550;60;1377;-84
2021/06/28 15:33:24;178538.00;0.60;308.97;59132.00;0.20;102.98;;;;;31.70;1.00;;;;;;2272324;60;961;-81
2021/06/28 15:38:20;317405.00;1.06;547.84;55564.00;0.19;96.81;;;;;31.30;1.00;;;;;;2285557;60;1353;-83
2021/06/28 15:40:50;323420.00;1.08;558.18;55907.00;0.19;97.40;;;;;30.60;1.00;;;;;;2281368;60;1451;-83
2021/06/28 15:45:45;422988.00;1.41;729.33;63731.00;0.21;110.93;;;;;30.50;1.00;;;;;;2274693;61;1390;-80
2021/06/28 15:48:12;296546.00;0.99;511.98;58982.00;0.20;102.72;;;;;30.50;1.00;;;;;;2266149;61;2006;-83
2021/06/28 15:53:07;670713.00;2.24;1156.49;79017.00;0.26;137.34;;;;;30.10;1.00;;;;;;2282917;60;1361;-84
2021/06/28 15:55:35;214718.00;0.72;371.25;60523.00;0.20;105.38;;;;;30.20;1.00;;;;;;2281222;60;1039;-84
2021/06/28 15:58:02;171434.00;0.57;296.74;60263.00;0.20;104.93;;;;;30.00;1.00;;;;;;2277874;60;927;-80
2021/06/28 16:00:30;180034.00;0.60;311.55;64804.00;0.22;112.78;;;;;29.90;1.00;;;;;;2274334;60;1357;-81
2021/06/28 16:02:58;168921.00;0.56;292.41;62187.00;0.21;108.26;;;;;29.80;1.00;;;;;;2277531;60;951;-81
2021/06/28 16:05:28;196658.00;0.66;340.17;65160.00;0.22;113.40;;;;;29.70;1.00;;;;;;2276656;61;941;-82
2021/06/28 16:07:56;245790.00;0.82;424.71;64964.00;0.22;113.06;;;;;29.60;1.00;;;;;;2269738;61;1999;-84
2021/06/28 16:10:24;210051.00;0.70;363.22;70654.00;0.24;122.89;;;;;29.40;1.00;;;;;;2276045;61;1394;-81
2021/06/28 16:15:23;413032.00;1.38;712.21;61817.00;0.21;107.62;;;;;29.00;1.00;;;;;;2275901;60;1402;-83
2021/06/28 16:17:50;431722.00;1.44;744.35;102791.00;0.34;178.39;;;;;28.80;1.00;;;;;;2270092;60;1004;-82
2021/06/28 16:20:19;331115.00;1.10;571.40;60590.00;0.20;105.50;;;;;28.70;1.00;;;;;;2266957;60;1322;-86
2021/06/28 16:22:46;337494.00;1.12;582.37;53112.00;0.18;92.57;;;;;28.70;1.00;;;;;;2273262;60;1058;-82
2021/06/28 16:25:14;243542.00;0.81;420.84;65948.00;0.22;114.76;;;;;28.60;1.00;;;;;;2273229;60;1051;-82
2021/06/28 16:27:42;288210.00;0.96;497.65;61393.00;0.20;106.88;;;;;28.80;1.00;;;;;;2272600;60;1921;-83
2021/06/28 16:32:40;435245.00;1.45;750.41;68875.00;0.23;119.82;;;;;28.80;1.00;;;;;;2282840;60;1397;-81
2021/06/28 16:35:09;113440.00;0.38;196.77;0.00;0.00;0.62;;;;;28.70;1.00;;;;;;2277415;60;1012;-80
2021/06/28 16:37:36;265692.00;0.89;458.94;0.00;0.00;0.62;;;;;28.60;1.00;;;;;;2274180;60;974;-85
2021/06/28 16:40:05;207220.00;0.69;358.35;0.00;0.00;0.62;;;;;28.30;1.00;;;;;;2280582;60;1469;-83
2021/06/28 16:42:32;159377.00;0.53;275.97;0.00;0.00;0.62;;;;;28.40;1.00;;;;;;2277375;60;986;-80
2021/06/28 16:44:59;99984.00;0.33;173.54;0.00;0.00;0.62;;;;;28.40;1.00;;;;;;2277480;61;1017;-84
2021/06/28 16:49:55;143846.00;0.48;249.20;0.00;0.00;0.62;;;;;28.40;1.00;;;;;;2283035;60;1346;-81
2021/06/28 16:57:17;152925.00;0.51;264.85;0.00;0.00;0.62;;;;;27.80;1.00;;;;;;2287456;61;1301;-83
2021/06/28 17:31:49;809148.00;2.70;1397.08;105343.00;0.35;182.79;;;;;23.60;8.60;;;;;;2275170;61;1302;-86
2021/06/28 19:47:59;0.00;0.00;0.62;0.00;0.00;0.62;;;;;22.10;10.70;;;;;;2283563;61;1883;-87
2021/06/28 20:17:34;248026.00;0.83;428.56;48809.00;0.16;85.13;;;;;22.70;6.40;;;;;;2270748;61;1011;-88
2021/06/28 20:20:03;176268.00;0.59;305.06;0.00;0.00;0.62;;;;;23.00;5.50;;;;;;2269235;61;1384;-87
2021/06/28 20:22:36;131176.00;0.44;227.36;0.00;0.00;0.62;;;;;23.30;4.60;;;;;;2265559;61;935;-88
2021/06/28 20:49:48;1156191.00;3.85;2011.21;134145.00;0.45;232.48;;;;;23.10;6.60;;;;;;2508856;40;3505;31
2021/06/28 21:19:25;694258.00;2.31;1197.28;25957.00;0.09;45.58;;;;;23.20;7.00;;;;;;2468533;40;3685;31
2021/06/28 22:18:41;257014.00;0.86;444.01;0.00;0.00;0.62;;;;;23.40;3.30;;;;;;2282784;61;973;-87
2021/06/28 23:17:54;549906.00;1.83;947.80;10283.00;0.03;18.44;;;;;22.30;4.30;;;;;;2271194;61;1158;-85
2021/06/28 23:25:16;567121.00;1.89;977.48;0.00;0.00;0.62;;;;;22.00;6.00;;;;;;2279094;60;1184;-84
2021/06/28 23:27:43;788719.00;2.63;1361.46;70367.00;0.23;122.39;;;;;21.90;5.70;;;;;;2273360;60;1041;-85
2021/06/28 23:30:11;1171990.00;3.91;2039.66;131264.00;0.44;227.51;;;;;22.00;5.40;;;;;;2272552;60;2014;-84
2021/06/28 23:35:08;118703056.00;395.68;67752784.00;1550.00;0.01;3.31;;;;;22.30;5.80;;;;;;2279070;60;1409;-82
2021/06/28 23:37:35;530747.00;1.77;914.78;0.00;0.00;0.62;;;;;22.80;4.70;;;;;;2277197;60;991;-83
2021/06/28 23:42:30;943995.00;3.15;1633.52;108734.00;0.36;188.65;;;;;23.00;2.90;;;;;;2282869;60;1417;-85
2021/06/28 23:49:52;534017.00;1.78;920.41;0.00;0.00;0.62;;;;;22.70;3.80;;;;;;2395899;40;3509;31
